WAT251 KBNA-KDEN
Flight info
| Callsign | WAT251 |
|---|---|
| Flight time | 2h 28m |
| Altitude | 28000 |
| Route | PARDN4 HODJS DCT ARG DCT GCK DCT KIISS CLASH5 |
| Aircraft | B738/M-SDGILRWY/SB1 |
Departure
| Time | 2026-05-08 02:49 |
|---|---|
| Airport | Nashville International Airport (KBNA) |
Arrival
| Time | 2026-05-08 05:18 |
|---|---|
| Airport | Denver International Airport (KDEN) |
| Time | Latitude | Longitude | Altitude | Speed | Heading |
|---|---|---|---|---|---|
| 2026-05-08 02:22 | 36.12951 | -86.67097 | 606 ft | 0 kts | 132° |
| 2026-05-08 02:38 | 36.12959 | -86.67108 | 606 ft | 2 kts | 132° |
| 2026-05-08 02:38 | 36.12969 | -86.67122 | 606 ft | 2 kts | 132° |
| 2026-05-08 02:38 | 36.12979 | -86.67135 | 606 ft | 2 kts | 132° |
| 2026-05-08 02:39 | 36.12989 | -86.67145 | 606 ft | 2 kts | 175° |
| 2026-05-08 02:39 | 36.13000 | -86.67142 | 606 ft | 0 kts | 219° |
| 2026-05-08 02:39 | 36.13004 | -86.67137 | 606 ft | 1 kts | 225° |
| 2026-05-08 02:39 | 36.13005 | -86.67136 | 606 ft | 0 kts | 224° |
| 2026-05-08 02:41 | 36.13004 | -86.67136 | 606 ft | 0 kts | 224° |
| 2026-05-08 02:42 | 36.13003 | -86.67138 | 606 ft | 0 kts | 224° |
| 2026-05-08 02:42 | 36.12993 | -86.67152 | 606 ft | 1 kts | 224° |
| 2026-05-08 02:42 | 36.12959 | -86.67191 | 606 ft | 11 kts | 224° |
| 2026-05-08 02:42 | 36.12874 | -86.67252 | 606 ft | 16 kts | 210° |
| 2026-05-08 02:43 | 36.12790 | -86.67346 | 606 ft | 16 kts | 224° |
| 2026-05-08 02:43 | 36.12708 | -86.67434 | 606 ft | 15 kts | 214° |
| 2026-05-08 02:43 | 36.12619 | -86.67497 | 606 ft | 14 kts | 208° |
| 2026-05-08 02:43 | 36.12544 | -86.67570 | 606 ft | 13 kts | 225° |
| 2026-05-08 02:44 | 36.12489 | -86.67654 | 606 ft | 12 kts | 261° |
| 2026-05-08 02:44 | 36.12537 | -86.67751 | 606 ft | 15 kts | 313° |
| 2026-05-08 02:44 | 36.12608 | -86.67844 | 606 ft | 14 kts | 313° |
| 2026-05-08 02:44 | 36.12678 | -86.67934 | 606 ft | 16 kts | 314° |
| 2026-05-08 02:45 | 36.12747 | -86.68049 | 606 ft | 16 kts | 266° |
| 2026-05-08 02:45 | 36.12649 | -86.68113 | 606 ft | 19 kts | 197° |
| 2026-05-08 02:45 | 36.12501 | -86.68166 | 606 ft | 22 kts | 195° |
| 2026-05-08 02:45 | 36.12352 | -86.68216 | 606 ft | 21 kts | 195° |
| 2026-05-08 02:46 | 36.12210 | -86.68260 | 606 ft | 20 kts | 196° |
| 2026-05-08 02:46 | 36.12075 | -86.68313 | 606 ft | 19 kts | 198° |
| 2026-05-08 02:46 | 36.11948 | -86.68365 | 606 ft | 18 kts | 198° |
| 2026-05-08 02:46 | 36.11824 | -86.68407 | 606 ft | 17 kts | 195° |
| 2026-05-08 02:47 | 36.11724 | -86.68453 | 606 ft | 11 kts | 234° |
| 2026-05-08 02:47 | 36.11721 | -86.68507 | 606 ft | 0 kts | 310° |
| 2026-05-08 02:47 | 36.11724 | -86.68511 | 606 ft | 3 kts | 310° |
| 2026-05-08 02:47 | 36.11737 | -86.68529 | 606 ft | 1 kts | 310° |
| 2026-05-08 02:48 | 36.11744 | -86.68540 | 606 ft | 2 kts | 306° |
| 2026-05-08 02:48 | 36.11763 | -86.68587 | 606 ft | 9 kts | 290° |
| 2026-05-08 02:48 | 36.11809 | -86.68630 | 606 ft | 9 kts | 13° |
| 2026-05-08 02:48 | 36.11882 | -86.68603 | 606 ft | 20 kts | 18° |
| 2026-05-08 02:49 | 36.12261 | -86.68454 | 606 ft | 91 kts | 17° |
| 2026-05-08 02:49 | 36.13058 | -86.68143 | 606 ft | 148 kts | 18° |
| 2026-05-08 02:49 | 36.14159 | -86.67694 | 884 ft | 172 kts | 18° |
| 2026-05-08 02:49 | 36.15253 | -86.67251 | 1711 ft | 165 kts | 17° |
| 2026-05-08 02:50 | 36.16325 | -86.66866 | 2374 ft | 164 kts | 9° |
| 2026-05-08 02:50 | 36.17523 | -86.67024 | 2632 ft | 184 kts | 338° |
| 2026-05-08 02:50 | 36.18684 | -86.67777 | 3065 ft | 195 kts | 333° |
| 2026-05-08 02:50 | 36.19941 | -86.68481 | 3573 ft | 201 kts | 339° |
| 2026-05-08 02:51 | 36.21320 | -86.69025 | 3894 ft | 217 kts | 344° |
| 2026-05-08 02:51 | 36.22870 | -86.69521 | 4169 ft | 238 kts | 345° |
| 2026-05-08 02:51 | 36.24537 | -86.70055 | 4608 ft | 252 kts | 345° |
| 2026-05-08 02:51 | 36.26161 | -86.70679 | 5490 ft | 247 kts | 334° |
| 2026-05-08 02:52 | 36.27564 | -86.71994 | 5943 ft | 259 kts | 308° |
| 2026-05-08 02:52 | 36.28365 | -86.74007 | 6645 ft | 263 kts | 286° |
| 2026-05-08 02:52 | 36.28628 | -86.76274 | 6909 ft | 266 kts | 273° |
| 2026-05-08 02:52 | 36.28521 | -86.78606 | 6953 ft | 267 kts | 265° |
| 2026-05-08 02:53 | 36.28222 | -86.80926 | 6949 ft | 278 kts | 261° |
| 2026-05-08 02:53 | 36.27725 | -86.83211 | 7885 ft | 271 kts | 254° |
| 2026-05-08 02:53 | 36.27207 | -86.85447 | 8607 ft | 270 kts | 264° |
| 2026-05-08 02:53 | 36.27083 | -86.87766 | 9350 ft | 267 kts | 272° |
| 2026-05-08 02:54 | 36.27130 | -86.90060 | 10070 ft | 268 kts | 275° |
| 2026-05-08 02:54 | 36.27190 | -86.92355 | 10601 ft | 275 kts | 274° |
| 2026-05-08 02:54 | 36.27224 | -86.94773 | 11029 ft | 287 kts | 273° |
| 2026-05-08 02:54 | 36.27231 | -86.97313 | 11409 ft | 300 kts | 272° |
| 2026-05-08 02:55 | 36.27224 | -86.99959 | 11900 ft | 313 kts | 271° |
| 2026-05-08 02:55 | 36.27204 | -87.05441 | 12669 ft | 337 kts | 271° |
| 2026-05-08 02:55 | 36.27194 | -87.07960 | 13265 ft | 339 kts | 271° |
| 2026-05-08 02:56 | 36.27181 | -87.10867 | 14021 ft | 339 kts | 271° |
| 2026-05-08 02:56 | 36.27168 | -87.13783 | 14769 ft | 340 kts | 271° |
| 2026-05-08 02:56 | 36.27155 | -87.16741 | 15411 ft | 344 kts | 271° |
| 2026-05-08 02:56 | 36.27149 | -87.19675 | 16143 ft | 345 kts | 272° |
| 2026-05-08 02:57 | 36.27245 | -87.22648 | 16739 ft | 349 kts | 276° |
| 2026-05-08 02:57 | 36.27554 | -87.25632 | 17383 ft | 350 kts | 279° |
| 2026-05-08 02:57 | 36.27998 | -87.28567 | 18073 ft | 351 kts | 281° |
| 2026-05-08 02:57 | 36.28498 | -87.31512 | 18678 ft | 353 kts | 282° |
| 2026-05-08 02:58 | 36.29012 | -87.34476 | 19343 ft | 354 kts | 282° |
| 2026-05-08 02:58 | 36.29524 | -87.37487 | 19905 ft | 357 kts | 281° |
| 2026-05-08 02:58 | 36.30016 | -87.40460 | 20541 ft | 358 kts | 281° |
| 2026-05-08 02:58 | 36.30508 | -87.43484 | 21064 ft | 361 kts | 281° |
| 2026-05-08 02:59 | 36.30985 | -87.46507 | 21697 ft | 360 kts | 280° |
| 2026-05-08 02:59 | 36.31352 | -87.49618 | 22167 ft | 364 kts | 276° |
| 2026-05-08 02:59 | 36.31470 | -87.52727 | 22750 ft | 365 kts | 272° |
| 2026-05-08 02:59 | 36.31409 | -87.55869 | 23198 ft | 369 kts | 270° |
| 2026-05-08 03:00 | 36.31259 | -87.59061 | 23774 ft | 368 kts | 268° |
| 2026-05-08 03:00 | 36.31083 | -87.62212 | 24254 ft | 370 kts | 268° |
| 2026-05-08 03:00 | 36.30904 | -87.65372 | 24876 ft | 367 kts | 268° |
| 2026-05-08 03:00 | 36.30732 | -87.68501 | 25357 ft | 370 kts | 268° |
| 2026-05-08 03:01 | 36.30558 | -87.71705 | 25890 ft | 370 kts | 268° |
| 2026-05-08 03:01 | 36.30392 | -87.74819 | 26472 ft | 369 kts | 268° |
| 2026-05-08 03:01 | 36.30225 | -87.78012 | 26912 ft | 371 kts | 268° |
| 2026-05-08 03:01 | 36.30060 | -87.81199 | 27470 ft | 369 kts | 268° |
| 2026-05-08 03:02 | 36.29898 | -87.84325 | 27942 ft | 369 kts | 268° |
| 2026-05-08 03:02 | 36.29733 | -87.87504 | 28083 ft | 372 kts | 268° |
| 2026-05-08 03:02 | 36.29567 | -87.90701 | 28079 ft | 366 kts | 268° |
| 2026-05-08 03:03 | 36.29259 | -87.96531 | 28092 ft | 366 kts | 267° |
| 2026-05-08 03:03 | 36.28927 | -88.02817 | 28086 ft | 366 kts | 267° |
| 2026-05-08 03:04 | 36.28591 | -88.09092 | 28089 ft | 366 kts | 268° |
| 2026-05-08 03:04 | 36.28254 | -88.15357 | 28100 ft | 366 kts | 267° |
| 2026-05-08 03:05 | 36.27911 | -88.21662 | 28086 ft | 366 kts | 268° |
| 2026-05-08 03:05 | 36.27578 | -88.27947 | 28087 ft | 367 kts | 268° |
| 2026-05-08 03:06 | 36.27264 | -88.34216 | 28070 ft | 366 kts | 268° |
| 2026-05-08 03:06 | 36.26942 | -88.40486 | 28082 ft | 369 kts | 268° |
| 2026-05-08 03:07 | 36.26615 | -88.46815 | 28077 ft | 369 kts | 267° |
| 2026-05-08 03:07 | 36.26283 | -88.53125 | 28068 ft | 368 kts | 267° |
| 2026-05-08 03:08 | 36.25948 | -88.59435 | 28066 ft | 369 kts | 268° |
| 2026-05-08 03:08 | 36.25606 | -88.65778 | 28075 ft | 369 kts | 267° |
| 2026-05-08 03:09 | 36.25263 | -88.72079 | 28070 ft | 371 kts | 267° |
| 2026-05-08 03:09 | 36.24916 | -88.78430 | 28061 ft | 369 kts | 268° |
| 2026-05-08 03:10 | 36.24567 | -88.84735 | 28070 ft | 369 kts | 267° |
| 2026-05-08 03:10 | 36.24216 | -88.91055 | 28064 ft | 371 kts | 267° |
| 2026-05-08 03:11 | 36.23858 | -88.97395 | 28061 ft | 370 kts | 268° |
| 2026-05-08 03:11 | 36.23497 | -89.03753 | 28066 ft | 370 kts | 267° |
| 2026-05-08 03:12 | 36.23134 | -89.10068 | 28064 ft | 371 kts | 268° |
| 2026-05-08 03:12 | 36.22768 | -89.16412 | 28057 ft | 371 kts | 267° |
| 2026-05-08 03:13 | 36.22394 | -89.22794 | 28060 ft | 370 kts | 267° |
| 2026-05-08 03:13 | 36.22020 | -89.29133 | 28051 ft | 371 kts | 267° |
| 2026-05-08 03:14 | 36.21642 | -89.35445 | 28058 ft | 370 kts | 267° |
| 2026-05-08 03:14 | 36.21259 | -89.41809 | 28064 ft | 371 kts | 267° |
| 2026-05-08 03:15 | 36.20878 | -89.48144 | 28061 ft | 371 kts | 267° |
| 2026-05-08 03:15 | 36.20491 | -89.54475 | 28058 ft | 370 kts | 267° |
| 2026-05-08 03:16 | 36.20099 | -89.60823 | 28052 ft | 370 kts | 267° |
| 2026-05-08 03:16 | 36.19704 | -89.67151 | 28055 ft | 371 kts | 266° |
| 2026-05-08 03:17 | 36.19305 | -89.73485 | 28052 ft | 371 kts | 267° |
| 2026-05-08 03:17 | 36.18905 | -89.79822 | 28055 ft | 370 kts | 266° |
| 2026-05-08 03:18 | 36.18500 | -89.86179 | 28052 ft | 372 kts | 266° |
| 2026-05-08 03:18 | 36.18090 | -89.92528 | 28050 ft | 371 kts | 266° |
| 2026-05-08 03:19 | 36.17680 | -89.98856 | 28058 ft | 370 kts | 267° |
| 2026-05-08 03:19 | 36.17263 | -90.05215 | 28050 ft | 371 kts | 267° |
| 2026-05-08 03:20 | 36.16846 | -90.11558 | 28060 ft | 371 kts | 266° |
| 2026-05-08 03:20 | 36.16423 | -90.17911 | 28049 ft | 370 kts | 266° |
| 2026-05-08 03:21 | 36.16001 | -90.24243 | 28048 ft | 370 kts | 266° |
| 2026-05-08 03:21 | 36.15572 | -90.30576 | 28052 ft | 372 kts | 266° |
| 2026-05-08 03:22 | 36.15141 | -90.36917 | 28053 ft | 370 kts | 266° |
| 2026-05-08 03:22 | 36.14707 | -90.43246 | 28052 ft | 372 kts | 266° |
| 2026-05-08 03:23 | 36.14269 | -90.49567 | 28049 ft | 371 kts | 267° |
| 2026-05-08 03:23 | 36.13828 | -90.55907 | 28048 ft | 370 kts | 266° |
| 2026-05-08 03:24 | 36.13385 | -90.62231 | 28048 ft | 370 kts | 266° |
| 2026-05-08 03:24 | 36.12937 | -90.68566 | 28051 ft | 371 kts | 265° |
| 2026-05-08 03:25 | 36.12484 | -90.74918 | 28043 ft | 370 kts | 265° |
| 2026-05-08 03:25 | 36.12029 | -90.81216 | 28055 ft | 371 kts | 266° |
| 2026-05-08 03:26 | 36.11570 | -90.87551 | 28051 ft | 370 kts | 265° |
| 2026-05-08 03:26 | 36.11286 | -90.93858 | 28057 ft | 370 kts | 271° |
| 2026-05-08 03:27 | 36.12018 | -91.00162 | 28062 ft | 373 kts | 280° |
| 2026-05-08 03:27 | 36.13324 | -91.06333 | 28044 ft | 373 kts | 283° |
| 2026-05-08 03:28 | 36.14821 | -91.12419 | 28052 ft | 373 kts | 283° |
| 2026-05-08 03:28 | 36.16316 | -91.18602 | 28051 ft | 375 kts | 283° |
| 2026-05-08 03:29 | 36.17760 | -91.24759 | 28050 ft | 375 kts | 282° |
| 2026-05-08 03:29 | 36.19189 | -91.30991 | 28054 ft | 375 kts | 283° |
| 2026-05-08 03:30 | 36.21299 | -91.40276 | 28043 ft | 376 kts | 282° |
| 2026-05-08 03:31 | 36.24108 | -91.52701 | 28045 ft | 376 kts | 283° |
| 2026-05-08 03:32 | 36.26213 | -91.62051 | 28048 ft | 376 kts | 282° |
| 2026-05-08 03:32 | 36.27606 | -91.68265 | 28047 ft | 378 kts | 282° |
| 2026-05-08 03:33 | 36.29010 | -91.74541 | 28041 ft | 377 kts | 282° |
| 2026-05-08 03:33 | 36.30403 | -91.80779 | 28054 ft | 377 kts | 282° |
| 2026-05-08 03:34 | 36.31799 | -91.87051 | 28050 ft | 378 kts | 282° |
| 2026-05-08 03:34 | 36.33192 | -91.93330 | 28055 ft | 379 kts | 282° |
| 2026-05-08 03:35 | 36.34586 | -91.99623 | 28052 ft | 379 kts | 282° |
| 2026-05-08 03:35 | 36.35977 | -92.05923 | 28057 ft | 380 kts | 282° |
| 2026-05-08 03:36 | 36.37417 | -92.12461 | 28049 ft | 380 kts | 282° |
| 2026-05-08 03:36 | 36.38810 | -92.18807 | 28049 ft | 380 kts | 282° |
| 2026-05-08 03:37 | 36.40187 | -92.25098 | 28061 ft | 381 kts | 282° |
| 2026-05-08 03:37 | 36.41566 | -92.31410 | 28054 ft | 381 kts | 283° |
| 2026-05-08 03:38 | 36.42950 | -92.37759 | 28063 ft | 381 kts | 282° |
| 2026-05-08 03:38 | 36.44330 | -92.44119 | 28050 ft | 380 kts | 283° |
| 2026-05-08 03:39 | 36.45707 | -92.50474 | 28056 ft | 381 kts | 283° |
| 2026-05-08 03:39 | 36.47076 | -92.56814 | 28055 ft | 381 kts | 282° |
| 2026-05-08 03:40 | 36.48445 | -92.63177 | 28055 ft | 382 kts | 283° |
| 2026-05-08 03:40 | 36.49809 | -92.69519 | 28062 ft | 381 kts | 282° |
| 2026-05-08 03:41 | 36.51172 | -92.75888 | 28051 ft | 383 kts | 282° |
| 2026-05-08 03:41 | 36.52529 | -92.82246 | 28062 ft | 383 kts | 282° |
| 2026-05-08 03:42 | 36.53898 | -92.88679 | 28055 ft | 384 kts | 282° |
| 2026-05-08 03:42 | 36.55250 | -92.95043 | 28062 ft | 384 kts | 282° |
| 2026-05-08 03:43 | 36.56613 | -93.01484 | 28060 ft | 384 kts | 282° |
| 2026-05-08 03:43 | 36.57961 | -93.07872 | 28058 ft | 385 kts | 282° |
| 2026-05-08 03:44 | 36.59316 | -93.14312 | 28060 ft | 385 kts | 282° |
| 2026-05-08 03:44 | 36.60665 | -93.20737 | 28049 ft | 385 kts | 282° |
| 2026-05-08 03:45 | 36.62018 | -93.27197 | 28057 ft | 384 kts | 282° |
| 2026-05-08 03:45 | 36.63366 | -93.33666 | 28052 ft | 387 kts | 282° |
| 2026-05-08 03:46 | 36.64709 | -93.40114 | 28050 ft | 387 kts | 282° |
| 2026-05-08 03:46 | 36.66048 | -93.46566 | 28049 ft | 387 kts | 282° |
| 2026-05-08 03:47 | 36.67387 | -93.53037 | 28048 ft | 388 kts | 282° |
| 2026-05-08 03:47 | 36.68724 | -93.59526 | 28047 ft | 387 kts | 283° |
| 2026-05-08 03:48 | 36.70060 | -93.66032 | 28043 ft | 389 kts | 282° |
| 2026-05-08 03:48 | 36.71399 | -93.72572 | 28040 ft | 389 kts | 282° |
| 2026-05-08 03:49 | 36.72728 | -93.79066 | 28040 ft | 388 kts | 282° |
| 2026-05-08 03:49 | 36.74053 | -93.85571 | 28041 ft | 390 kts | 282° |
| 2026-05-08 03:50 | 36.75385 | -93.92127 | 28037 ft | 390 kts | 282° |
| 2026-05-08 03:50 | 36.76705 | -93.98637 | 28038 ft | 390 kts | 282° |
| 2026-05-08 03:51 | 36.78031 | -94.05208 | 28034 ft | 390 kts | 282° |
| 2026-05-08 03:51 | 36.79356 | -94.11793 | 28033 ft | 393 kts | 282° |
| 2026-05-08 03:52 | 36.80671 | -94.18345 | 28047 ft | 392 kts | 282° |
| 2026-05-08 03:52 | 36.81992 | -94.24957 | 28031 ft | 394 kts | 282° |
| 2026-05-08 03:53 | 36.83306 | -94.31544 | 28039 ft | 393 kts | 282° |
| 2026-05-08 03:53 | 36.84621 | -94.38168 | 28025 ft | 392 kts | 282° |
| 2026-05-08 03:54 | 36.85930 | -94.44765 | 28016 ft | 393 kts | 282° |
| 2026-05-08 03:54 | 36.87232 | -94.51354 | 28019 ft | 393 kts | 282° |
| 2026-05-08 03:55 | 36.88533 | -94.57964 | 28009 ft | 394 kts | 283° |
| 2026-05-08 03:55 | 36.89187 | -94.61295 | 27998 ft | 396 kts | 282° |
| 2026-05-08 03:55 | 36.89840 | -94.64633 | 28002 ft | 395 kts | 283° |
| 2026-05-08 03:56 | 36.91136 | -94.71252 | 28012 ft | 394 kts | 282° |
| 2026-05-08 03:56 | 36.92437 | -94.77925 | 28012 ft | 395 kts | 282° |
| 2026-05-08 03:57 | 36.93739 | -94.84620 | 28004 ft | 397 kts | 282° |
| 2026-05-08 03:57 | 36.94377 | -94.87911 | 27999 ft | 396 kts | 282° |
| 2026-05-08 03:57 | 36.95030 | -94.91280 | 28001 ft | 397 kts | 282° |
| 2026-05-08 03:58 | 36.96329 | -94.98000 | 28001 ft | 396 kts | 282° |
| 2026-05-08 03:58 | 36.96967 | -95.01306 | 27996 ft | 396 kts | 282° |
| 2026-05-08 03:58 | 36.97618 | -95.04687 | 27994 ft | 398 kts | 282° |
| 2026-05-08 03:58 | 36.98259 | -95.08030 | 27992 ft | 397 kts | 282° |
| 2026-05-08 03:59 | 36.98903 | -95.11385 | 27986 ft | 398 kts | 282° |
| 2026-05-08 03:59 | 36.99544 | -95.14737 | 27986 ft | 398 kts | 282° |
| 2026-05-08 03:59 | 37.00182 | -95.18076 | 28088 ft | 397 kts | 282° |
| 2026-05-08 03:59 | 37.00828 | -95.21463 | 28286 ft | 401 kts | 282° |
| 2026-05-08 04:00 | 37.01474 | -95.24855 | 28245 ft | 404 kts | 282° |
| 2026-05-08 04:00 | 37.02115 | -95.28233 | 28010 ft | 398 kts | 282° |
| 2026-05-08 04:00 | 37.02754 | -95.31599 | 27973 ft | 397 kts | 282° |
| 2026-05-08 04:00 | 37.03394 | -95.34976 | 27971 ft | 401 kts | 282° |
| 2026-05-08 04:01 | 37.04030 | -95.38338 | 27969 ft | 399 kts | 282° |
| 2026-05-08 04:01 | 37.04670 | -95.41722 | 27963 ft | 400 kts | 282° |
| 2026-05-08 04:01 | 37.05313 | -95.45125 | 27969 ft | 401 kts | 282° |
| 2026-05-08 04:01 | 37.05948 | -95.48501 | 27962 ft | 401 kts | 283° |
| 2026-05-08 04:02 | 37.06584 | -95.51887 | 27969 ft | 399 kts | 282° |
| 2026-05-08 04:02 | 37.07213 | -95.55238 | 27974 ft | 402 kts | 282° |
| 2026-05-08 04:02 | 37.07853 | -95.58654 | 27966 ft | 401 kts | 282° |
| 2026-05-08 04:02 | 37.08492 | -95.62070 | 27967 ft | 401 kts | 282° |
| 2026-05-08 04:03 | 37.09121 | -95.65443 | 27972 ft | 402 kts | 282° |
| 2026-05-08 04:03 | 37.10387 | -95.72238 | 27968 ft | 400 kts | 282° |
| 2026-05-08 04:03 | 37.11024 | -95.75661 | 27962 ft | 400 kts | 282° |
| 2026-05-08 04:04 | 37.11649 | -95.79022 | 27967 ft | 401 kts | 282° |
| 2026-05-08 04:04 | 37.12280 | -95.82421 | 27972 ft | 401 kts | 282° |
| 2026-05-08 04:04 | 37.12906 | -95.85809 | 27965 ft | 400 kts | 282° |
| 2026-05-08 04:04 | 37.13525 | -95.89163 | 27962 ft | 400 kts | 282° |
| 2026-05-08 04:05 | 37.14156 | -95.92595 | 27954 ft | 401 kts | 282° |
| 2026-05-08 04:05 | 37.14777 | -95.95975 | 27953 ft | 400 kts | 282° |
| 2026-05-08 04:05 | 37.15402 | -95.99374 | 27963 ft | 399 kts | 282° |
| 2026-05-08 04:05 | 37.16022 | -96.02752 | 27948 ft | 401 kts | 282° |
| 2026-05-08 04:06 | 37.16641 | -96.06136 | 27956 ft | 402 kts | 282° |
| 2026-05-08 04:06 | 37.17260 | -96.09534 | 27938 ft | 400 kts | 282° |
| 2026-05-08 04:06 | 37.17876 | -96.12915 | 27946 ft | 400 kts | 282° |
| 2026-05-08 04:06 | 37.18503 | -96.16366 | 27945 ft | 404 kts | 282° |
| 2026-05-08 04:07 | 37.19120 | -96.19763 | 27948 ft | 403 kts | 282° |
| 2026-05-08 04:07 | 37.19744 | -96.23199 | 27958 ft | 402 kts | 282° |
| 2026-05-08 04:07 | 37.20359 | -96.26600 | 27964 ft | 402 kts | 282° |
| 2026-05-08 04:07 | 37.20974 | -96.29996 | 27953 ft | 402 kts | 282° |
| 2026-05-08 04:08 | 37.21594 | -96.33431 | 27957 ft | 405 kts | 282° |
| 2026-05-08 04:08 | 37.22210 | -96.36854 | 27957 ft | 404 kts | 282° |
| 2026-05-08 04:08 | 37.22826 | -96.40282 | 27954 ft | 405 kts | 282° |
| 2026-05-08 04:08 | 37.23448 | -96.43747 | 27961 ft | 403 kts | 282° |
| 2026-05-08 04:09 | 37.24059 | -96.47160 | 27964 ft | 405 kts | 282° |
| 2026-05-08 04:09 | 37.24671 | -96.50581 | 27957 ft | 405 kts | 282° |
| 2026-05-08 04:09 | 37.25288 | -96.54046 | 27955 ft | 404 kts | 282° |
| 2026-05-08 04:09 | 37.25900 | -96.57478 | 27949 ft | 403 kts | 282° |
| 2026-05-08 04:10 | 37.26509 | -96.60902 | 27959 ft | 406 kts | 282° |
| 2026-05-08 04:10 | 37.27118 | -96.64326 | 27961 ft | 404 kts | 282° |
| 2026-05-08 04:10 | 37.27732 | -96.67790 | 27962 ft | 406 kts | 282° |
| 2026-05-08 04:10 | 37.28334 | -96.71193 | 27952 ft | 404 kts | 281° |
| 2026-05-08 04:11 | 37.28940 | -96.74628 | 27961 ft | 405 kts | 282° |
| 2026-05-08 04:11 | 37.29552 | -96.78104 | 27961 ft | 407 kts | 281° |
| 2026-05-08 04:11 | 37.30163 | -96.81569 | 27950 ft | 405 kts | 281° |
| 2026-05-08 04:11 | 37.30763 | -96.84985 | 27946 ft | 403 kts | 282° |
| 2026-05-08 04:12 | 37.31367 | -96.88429 | 27948 ft | 407 kts | 282° |
| 2026-05-08 04:12 | 37.31972 | -96.91887 | 27940 ft | 407 kts | 282° |
| 2026-05-08 04:12 | 37.32576 | -96.95337 | 27939 ft | 405 kts | 282° |
| 2026-05-08 04:12 | 37.33179 | -96.98793 | 27939 ft | 407 kts | 282° |
| 2026-05-08 04:13 | 37.33787 | -97.02287 | 27930 ft | 407 kts | 282° |
| 2026-05-08 04:13 | 37.34383 | -97.05719 | 27930 ft | 405 kts | 281° |
| 2026-05-08 04:13 | 37.34986 | -97.09199 | 27939 ft | 407 kts | 281° |
| 2026-05-08 04:13 | 37.35587 | -97.12666 | 27942 ft | 408 kts | 282° |
| 2026-05-08 04:14 | 37.36183 | -97.16116 | 27937 ft | 407 kts | 281° |
| 2026-05-08 04:14 | 37.36789 | -97.19627 | 27931 ft | 408 kts | 281° |
| 2026-05-08 04:14 | 37.37389 | -97.23103 | 27934 ft | 406 kts | 281° |
| 2026-05-08 04:14 | 37.37979 | -97.26535 | 27939 ft | 407 kts | 282° |
| 2026-05-08 04:15 | 37.38574 | -97.30008 | 27939 ft | 406 kts | 282° |
| 2026-05-08 04:15 | 37.39172 | -97.33508 | 27933 ft | 408 kts | 281° |
| 2026-05-08 04:15 | 37.39761 | -97.36955 | 27934 ft | 407 kts | 281° |
| 2026-05-08 04:15 | 37.40358 | -97.40456 | 27935 ft | 408 kts | 282° |
| 2026-05-08 04:16 | 37.40947 | -97.43916 | 27933 ft | 408 kts | 282° |
| 2026-05-08 04:16 | 37.41537 | -97.47389 | 27932 ft | 409 kts | 282° |
| 2026-05-08 04:16 | 37.42123 | -97.50843 | 27928 ft | 407 kts | 282° |
| 2026-05-08 04:16 | 37.42721 | -97.54373 | 27930 ft | 409 kts | 282° |
| 2026-05-08 04:17 | 37.43309 | -97.57853 | 27929 ft | 409 kts | 282° |
| 2026-05-08 04:17 | 37.43896 | -97.61333 | 27927 ft | 409 kts | 281° |
| 2026-05-08 04:17 | 37.44482 | -97.64813 | 27931 ft | 409 kts | 281° |
| 2026-05-08 04:17 | 37.45069 | -97.68312 | 28053 ft | 406 kts | 281° |
| 2026-05-08 04:18 | 37.45659 | -97.71830 | 27925 ft | 411 kts | 281° |
| 2026-05-08 04:18 | 37.46245 | -97.75333 | 27933 ft | 408 kts | 281° |
| 2026-05-08 04:18 | 37.46821 | -97.78783 | 27928 ft | 409 kts | 281° |
| 2026-05-08 04:18 | 37.47406 | -97.82290 | 27935 ft | 409 kts | 281° |
| 2026-05-08 04:19 | 37.47993 | -97.85815 | 27940 ft | 409 kts | 281° |
| 2026-05-08 04:19 | 37.48571 | -97.89293 | 27938 ft | 410 kts | 281° |
| 2026-05-08 04:19 | 37.49157 | -97.92823 | 27929 ft | 409 kts | 281° |
| 2026-05-08 04:19 | 37.49733 | -97.96307 | 27935 ft | 411 kts | 281° |
| 2026-05-08 04:20 | 37.50315 | -97.99837 | 27935 ft | 411 kts | 281° |
| 2026-05-08 04:20 | 37.50892 | -98.03342 | 27927 ft | 408 kts | 281° |
| 2026-05-08 04:20 | 37.51464 | -98.06816 | 27938 ft | 410 kts | 281° |
| 2026-05-08 04:20 | 37.52041 | -98.10339 | 27926 ft | 409 kts | 281° |
| 2026-05-08 04:21 | 37.52610 | -98.13813 | 27922 ft | 410 kts | 281° |
| 2026-05-08 04:21 | 37.53187 | -98.17347 | 27929 ft | 411 kts | 281° |
| 2026-05-08 04:21 | 37.53759 | -98.20845 | 27923 ft | 411 kts | 281° |
| 2026-05-08 04:21 | 37.54334 | -98.24377 | 27933 ft | 411 kts | 281° |
| 2026-05-08 04:22 | 37.55476 | -98.31415 | 28453 ft | 408 kts | 281° |
| 2026-05-08 04:22 | 37.56616 | -98.38461 | 28156 ft | 412 kts | 281° |
| 2026-05-08 04:23 | 37.57183 | -98.41973 | 27943 ft | 408 kts | 281° |
| 2026-05-08 04:23 | 37.57747 | -98.45470 | 27928 ft | 409 kts | 281° |
| 2026-05-08 04:23 | 37.58318 | -98.49026 | 27927 ft | 413 kts | 281° |
| 2026-05-08 04:23 | 37.58881 | -98.52542 | 27928 ft | 412 kts | 281° |
| 2026-05-08 04:24 | 37.59449 | -98.56104 | 27926 ft | 411 kts | 281° |
| 2026-05-08 04:24 | 37.60007 | -98.59598 | 27930 ft | 412 kts | 281° |
| 2026-05-08 04:24 | 37.60576 | -98.63167 | 27933 ft | 411 kts | 281° |
| 2026-05-08 04:24 | 37.61132 | -98.66666 | 27935 ft | 412 kts | 280° |
| 2026-05-08 04:25 | 37.61698 | -98.70239 | 27923 ft | 413 kts | 281° |
| 2026-05-08 04:25 | 37.62256 | -98.73762 | 27928 ft | 412 kts | 281° |
| 2026-05-08 04:25 | 37.62816 | -98.77299 | 27923 ft | 412 kts | 281° |
| 2026-05-08 04:25 | 37.63374 | -98.80837 | 27924 ft | 412 kts | 281° |
| 2026-05-08 04:26 | 37.63934 | -98.84398 | 27924 ft | 415 kts | 281° |
| 2026-05-08 04:26 | 37.64492 | -98.87947 | 27925 ft | 413 kts | 281° |
| 2026-05-08 04:26 | 37.65043 | -98.91460 | 27926 ft | 413 kts | 281° |
| 2026-05-08 04:26 | 37.65602 | -98.95042 | 27925 ft | 412 kts | 281° |
| 2026-05-08 04:27 | 37.66150 | -98.98550 | 27934 ft | 415 kts | 281° |
| 2026-05-08 04:27 | 37.66707 | -99.02119 | 27929 ft | 415 kts | 281° |
| 2026-05-08 04:27 | 37.67260 | -99.05682 | 27932 ft | 411 kts | 281° |
| 2026-05-08 04:27 | 37.67810 | -99.09222 | 27931 ft | 414 kts | 281° |
| 2026-05-08 04:28 | 37.68366 | -99.12812 | 27927 ft | 414 kts | 281° |
| 2026-05-08 04:28 | 37.68911 | -99.16341 | 27927 ft | 413 kts | 281° |
| 2026-05-08 04:28 | 37.69462 | -99.19909 | 27927 ft | 413 kts | 281° |
| 2026-05-08 04:28 | 37.70006 | -99.23446 | 27932 ft | 414 kts | 281° |
| 2026-05-08 04:29 | 37.70552 | -99.27005 | 27934 ft | 414 kts | 281° |
| 2026-05-08 04:29 | 37.71102 | -99.30595 | 27933 ft | 413 kts | 281° |
| 2026-05-08 04:29 | 37.71642 | -99.34126 | 27934 ft | 414 kts | 281° |
| 2026-05-08 04:29 | 37.72187 | -99.37694 | 27934 ft | 415 kts | 281° |
| 2026-05-08 04:30 | 37.72728 | -99.41250 | 27941 ft | 416 kts | 281° |
| 2026-05-08 04:30 | 37.73275 | -99.44841 | 27942 ft | 414 kts | 281° |
| 2026-05-08 04:30 | 37.73819 | -99.48426 | 27940 ft | 414 kts | 280° |
| 2026-05-08 04:30 | 37.74352 | -99.51952 | 27937 ft | 413 kts | 281° |
| 2026-05-08 04:31 | 37.74891 | -99.55523 | 27948 ft | 415 kts | 281° |
| 2026-05-08 04:31 | 37.75430 | -99.59106 | 27942 ft | 414 kts | 280° |
| 2026-05-08 04:31 | 37.75963 | -99.62653 | 27938 ft | 413 kts | 281° |
| 2026-05-08 04:31 | 37.76496 | -99.66210 | 27943 ft | 414 kts | 280° |
| 2026-05-08 04:32 | 37.77028 | -99.69771 | 27947 ft | 414 kts | 280° |
| 2026-05-08 04:32 | 37.77561 | -99.73344 | 27948 ft | 414 kts | 280° |
| 2026-05-08 04:32 | 37.78095 | -99.76923 | 27951 ft | 414 kts | 280° |
| 2026-05-08 04:32 | 37.78628 | -99.80512 | 27948 ft | 416 kts | 280° |
| 2026-05-08 04:33 | 37.79159 | -99.84086 | 27949 ft | 416 kts | 280° |
| 2026-05-08 04:33 | 37.79689 | -99.87666 | 27948 ft | 416 kts | 280° |
| 2026-05-08 04:33 | 37.80222 | -99.91271 | 27938 ft | 415 kts | 280° |
| 2026-05-08 04:33 | 37.80750 | -99.94854 | 27933 ft | 415 kts | 280° |
| 2026-05-08 04:34 | 37.81274 | -99.98415 | 27937 ft | 416 kts | 280° |
| 2026-05-08 04:34 | 37.81802 | -100.02012 | 27937 ft | 415 kts | 280° |
| 2026-05-08 04:34 | 37.82323 | -100.05575 | 27941 ft | 415 kts | 280° |
| 2026-05-08 04:34 | 37.82847 | -100.09158 | 27951 ft | 416 kts | 280° |
| 2026-05-08 04:35 | 37.83375 | -100.12785 | 27955 ft | 416 kts | 280° |
| 2026-05-08 04:35 | 37.83901 | -100.16392 | 27957 ft | 415 kts | 280° |
| 2026-05-08 04:35 | 37.84420 | -100.19971 | 27959 ft | 415 kts | 280° |
| 2026-05-08 04:35 | 37.84937 | -100.23545 | 27961 ft | 416 kts | 280° |
| 2026-05-08 04:36 | 37.85457 | -100.27147 | 27962 ft | 415 kts | 280° |
| 2026-05-08 04:36 | 37.85980 | -100.30780 | 27962 ft | 416 kts | 280° |
| 2026-05-08 04:36 | 37.86494 | -100.34363 | 27962 ft | 416 kts | 280° |
| 2026-05-08 04:36 | 37.87014 | -100.37987 | 27963 ft | 417 kts | 280° |
| 2026-05-08 04:37 | 37.87531 | -100.41594 | 27963 ft | 415 kts | 280° |
| 2026-05-08 04:37 | 37.88043 | -100.45179 | 27969 ft | 417 kts | 280° |
| 2026-05-08 04:37 | 37.88562 | -100.48817 | 27972 ft | 416 kts | 280° |
| 2026-05-08 04:37 | 37.89071 | -100.52402 | 27969 ft | 417 kts | 280° |
| 2026-05-08 04:38 | 37.89584 | -100.56018 | 27962 ft | 418 kts | 280° |
| 2026-05-08 04:38 | 37.90100 | -100.59664 | 27955 ft | 419 kts | 280° |
| 2026-05-08 04:38 | 37.90610 | -100.63272 | 27946 ft | 418 kts | 280° |
| 2026-05-08 04:38 | 37.91142 | -100.66899 | 27933 ft | 418 kts | 281° |
| 2026-05-08 04:39 | 37.91774 | -100.70462 | 27932 ft | 418 kts | 284° |
| 2026-05-08 04:39 | 37.92657 | -100.74001 | 27934 ft | 417 kts | 289° |
| 2026-05-08 04:39 | 37.93773 | -100.77470 | 27934 ft | 420 kts | 292° |
| 2026-05-08 04:39 | 37.94997 | -100.80837 | 27943 ft | 421 kts | 294° |
| 2026-05-08 04:40 | 37.96292 | -100.84209 | 27962 ft | 420 kts | 294° |
| 2026-05-08 04:40 | 37.97592 | -100.87521 | 27968 ft | 420 kts | 295° |
| 2026-05-08 04:40 | 37.98910 | -100.90867 | 27971 ft | 421 kts | 295° |
| 2026-05-08 04:40 | 38.00218 | -100.94200 | 27964 ft | 420 kts | 295° |
| 2026-05-08 04:41 | 38.01543 | -100.97594 | 27966 ft | 420 kts | 295° |
| 2026-05-08 04:41 | 38.02846 | -101.00956 | 27964 ft | 421 kts | 295° |
| 2026-05-08 04:41 | 38.04161 | -101.04363 | 27965 ft | 420 kts | 294° |
| 2026-05-08 04:41 | 38.05474 | -101.07781 | 27972 ft | 421 kts | 294° |
| 2026-05-08 04:42 | 38.06794 | -101.11228 | 27967 ft | 420 kts | 294° |
| 2026-05-08 04:42 | 38.08106 | -101.14662 | 27964 ft | 421 kts | 294° |
| 2026-05-08 04:42 | 38.09432 | -101.18138 | 27971 ft | 422 kts | 295° |
| 2026-05-08 04:42 | 38.10720 | -101.21522 | 27968 ft | 422 kts | 295° |
| 2026-05-08 04:43 | 38.12003 | -101.24896 | 27973 ft | 421 kts | 294° |
| 2026-05-08 04:43 | 38.13266 | -101.28218 | 27970 ft | 420 kts | 295° |
| 2026-05-08 04:43 | 38.14542 | -101.31582 | 27970 ft | 421 kts | 295° |
| 2026-05-08 04:43 | 38.15802 | -101.34906 | 27974 ft | 422 kts | 295° |
| 2026-05-08 04:44 | 38.17075 | -101.38267 | 27973 ft | 421 kts | 295° |
| 2026-05-08 04:44 | 38.18339 | -101.41608 | 27976 ft | 420 kts | 295° |
| 2026-05-08 04:44 | 38.19667 | -101.44950 | 27977 ft | 422 kts | 297° |
| 2026-05-08 04:44 | 38.21115 | -101.48140 | 27978 ft | 421 kts | 300° |
| 2026-05-08 04:45 | 38.22681 | -101.51327 | 27981 ft | 421 kts | 301° |
| 2026-05-08 04:45 | 38.24250 | -101.54413 | 27982 ft | 421 kts | 301° |
| 2026-05-08 04:45 | 38.25864 | -101.57563 | 27985 ft | 423 kts | 301° |
| 2026-05-08 04:45 | 38.27464 | -101.60691 | 27980 ft | 422 kts | 301° |
| 2026-05-08 04:46 | 38.29056 | -101.63819 | 27985 ft | 421 kts | 301° |
| 2026-05-08 04:46 | 38.30629 | -101.66934 | 27986 ft | 422 kts | 301° |
| 2026-05-08 04:46 | 38.32212 | -101.70084 | 27980 ft | 421 kts | 301° |
| 2026-05-08 04:46 | 38.33810 | -101.73277 | 27988 ft | 423 kts | 301° |
| 2026-05-08 04:47 | 38.35438 | -101.76541 | 27988 ft | 423 kts | 301° |
| 2026-05-08 04:47 | 38.37058 | -101.79800 | 27991 ft | 422 kts | 301° |
| 2026-05-08 04:47 | 38.38663 | -101.83031 | 27992 ft | 421 kts | 301° |
| 2026-05-08 04:47 | 38.40287 | -101.86306 | 27988 ft | 422 kts | 301° |
| 2026-05-08 04:48 | 38.41904 | -101.89573 | 27991 ft | 422 kts | 301° |
| 2026-05-08 04:48 | 38.43507 | -101.92813 | 27995 ft | 423 kts | 300° |
| 2026-05-08 04:48 | 38.45126 | -101.96089 | 27991 ft | 423 kts | 301° |
| 2026-05-08 04:48 | 38.46720 | -101.99319 | 27992 ft | 423 kts | 301° |
| 2026-05-08 04:49 | 38.48346 | -102.02617 | 28000 ft | 423 kts | 301° |
| 2026-05-08 04:49 | 38.50004 | -102.05983 | 28008 ft | 423 kts | 301° |
| 2026-05-08 04:49 | 38.53252 | -102.12588 | 28009 ft | 422 kts | 301° |
| 2026-05-08 04:50 | 38.56470 | -102.19141 | 28004 ft | 421 kts | 301° |
| 2026-05-08 04:50 | 38.59714 | -102.25776 | 28016 ft | 420 kts | 300° |
| 2026-05-08 04:51 | 38.62940 | -102.32404 | 28013 ft | 420 kts | 301° |
| 2026-05-08 04:51 | 38.66167 | -102.39050 | 28018 ft | 420 kts | 301° |
| 2026-05-08 04:52 | 38.69403 | -102.45727 | 28018 ft | 419 kts | 301° |
| 2026-05-08 04:52 | 38.72509 | -102.52144 | 28031 ft | 418 kts | 301° |
| 2026-05-08 04:53 | 38.75692 | -102.58727 | 28033 ft | 419 kts | 301° |
| 2026-05-08 04:53 | 38.78874 | -102.65334 | 28046 ft | 420 kts | 300° |
| 2026-05-08 04:54 | 38.82056 | -102.71952 | 28041 ft | 420 kts | 300° |
| 2026-05-08 04:54 | 38.85236 | -102.78575 | 28055 ft | 419 kts | 300° |
| 2026-05-08 04:55 | 38.88401 | -102.85187 | 28060 ft | 419 kts | 300° |
| 2026-05-08 04:55 | 38.91569 | -102.91817 | 28066 ft | 418 kts | 300° |
| 2026-05-08 04:56 | 38.94718 | -102.98423 | 28082 ft | 419 kts | 300° |
| 2026-05-08 04:56 | 38.97904 | -103.05056 | 28081 ft | 418 kts | 301° |
| 2026-05-08 04:57 | 39.01062 | -103.11571 | 28083 ft | 417 kts | 301° |
| 2026-05-08 04:57 | 39.04148 | -103.17944 | 28083 ft | 419 kts | 301° |
| 2026-05-08 04:58 | 39.07189 | -103.24285 | 28091 ft | 417 kts | 301° |
| 2026-05-08 04:58 | 39.10223 | -103.30688 | 28101 ft | 421 kts | 300° |
| 2026-05-08 04:59 | 39.11748 | -103.33913 | 28098 ft | 432 kts | 300° |
| 2026-05-08 04:59 | 39.13318 | -103.37235 | 28058 ft | 439 kts | 300° |
| 2026-05-08 04:59 | 39.14918 | -103.40625 | 27576 ft | 432 kts | 300° |
| 2026-05-08 04:59 | 39.16490 | -103.43957 | 27051 ft | 409 kts | 301° |
| 2026-05-08 05:00 | 39.17969 | -103.47089 | 26351 ft | 396 kts | 301° |
| 2026-05-08 05:00 | 39.19389 | -103.50104 | 25417 ft | 395 kts | 301° |
| 2026-05-08 05:00 | 39.20811 | -103.53127 | 24398 ft | 395 kts | 301° |
| 2026-05-08 05:00 | 39.22238 | -103.56167 | 23753 ft | 403 kts | 301° |
| 2026-05-08 05:01 | 39.23729 | -103.59345 | 23156 ft | 418 kts | 301° |
| 2026-05-08 05:01 | 39.25222 | -103.62528 | 22603 ft | 415 kts | 301° |
| 2026-05-08 05:01 | 39.26699 | -103.65678 | 22304 ft | 402 kts | 300° |
| 2026-05-08 05:01 | 39.28133 | -103.68740 | 22077 ft | 389 kts | 301° |
| 2026-05-08 05:02 | 39.29533 | -103.71674 | 21643 ft | 381 kts | 302° |
| 2026-05-08 05:02 | 39.30971 | -103.74486 | 20991 ft | 373 kts | 303° |
| 2026-05-08 05:02 | 39.32395 | -103.77156 | 20500 ft | 355 kts | 304° |
| 2026-05-08 05:02 | 39.33801 | -103.79756 | 20033 ft | 338 kts | 304° |
| 2026-05-08 05:03 | 39.35139 | -103.82233 | 19577 ft | 333 kts | 304° |
| 2026-05-08 05:03 | 39.36458 | -103.84688 | 19095 ft | 329 kts | 304° |
| 2026-05-08 05:03 | 39.37757 | -103.87122 | 18636 ft | 326 kts | 304° |
| 2026-05-08 05:03 | 39.39042 | -103.89545 | 18157 ft | 323 kts | 304° |
| 2026-05-08 05:04 | 39.40304 | -103.91933 | 17723 ft | 319 kts | 304° |
| 2026-05-08 05:04 | 39.41543 | -103.94284 | 17433 ft | 310 kts | 304° |
| 2026-05-08 05:04 | 39.42724 | -103.96545 | 17268 ft | 299 kts | 302° |
| 2026-05-08 05:04 | 39.43680 | -103.98878 | 17115 ft | 288 kts | 291° |
| 2026-05-08 05:05 | 39.44104 | -104.01352 | 16784 ft | 286 kts | 276° |
| 2026-05-08 05:05 | 39.44100 | -104.03924 | 16373 ft | 286 kts | 270° |
| 2026-05-08 05:05 | 39.43990 | -104.06518 | 15943 ft | 286 kts | 269° |
| 2026-05-08 05:05 | 39.43871 | -104.09094 | 15513 ft | 285 kts | 269° |
| 2026-05-08 05:06 | 39.43764 | -104.11673 | 15132 ft | 283 kts | 270° |
| 2026-05-08 05:06 | 39.43670 | -104.14239 | 14748 ft | 282 kts | 270° |
| 2026-05-08 05:06 | 39.43581 | -104.16779 | 14338 ft | 281 kts | 270° |
| 2026-05-08 05:06 | 39.43491 | -104.19341 | 13953 ft | 279 kts | 270° |
| 2026-05-08 05:07 | 39.43400 | -104.21897 | 13570 ft | 278 kts | 270° |
| 2026-05-08 05:07 | 39.43311 | -104.24371 | 13215 ft | 275 kts | 269° |
| 2026-05-08 05:07 | 39.43221 | -104.26827 | 13069 ft | 271 kts | 270° |
| 2026-05-08 05:07 | 39.43132 | -104.29269 | 12955 ft | 268 kts | 270° |
| 2026-05-08 05:08 | 39.43044 | -104.31663 | 12762 ft | 261 kts | 270° |
| 2026-05-08 05:08 | 39.42958 | -104.34013 | 12575 ft | 253 kts | 270° |
| 2026-05-08 05:08 | 39.42874 | -104.36327 | 12193 ft | 254 kts | 270° |
| 2026-05-08 05:08 | 39.42792 | -104.38692 | 11747 ft | 257 kts | 270° |
| 2026-05-08 05:09 | 39.42709 | -104.41089 | 11404 ft | 256 kts | 270° |
| 2026-05-08 05:09 | 39.42623 | -104.43424 | 11102 ft | 253 kts | 269° |
| 2026-05-08 05:09 | 39.42538 | -104.45742 | 11031 ft | 240 kts | 270° |
| 2026-05-08 05:09 | 39.42469 | -104.47922 | 10860 ft | 233 kts | 270° |
| 2026-05-08 05:10 | 39.42409 | -104.50088 | 10573 ft | 231 kts | 272° |
| 2026-05-08 05:10 | 39.43390 | -104.54010 | 9953 ft | 230 kts | 308° |
| 2026-05-08 05:10 | 39.44400 | -104.55643 | 9635 ft | 231 kts | 308° |
| 2026-05-08 05:11 | 39.45403 | -104.57312 | 9326 ft | 233 kts | 307° |
| 2026-05-08 05:11 | 39.46390 | -104.58978 | 9066 ft | 232 kts | 309° |
| 2026-05-08 05:11 | 39.47456 | -104.60564 | 9059 ft | 232 kts | 313° |
| 2026-05-08 05:11 | 39.48582 | -104.62100 | 9046 ft | 234 kts | 316° |
| 2026-05-08 05:12 | 39.49874 | -104.63345 | 9046 ft | 234 kts | 335° |
| 2026-05-08 05:12 | 39.51428 | -104.64011 | 9055 ft | 236 kts | 345° |
| 2026-05-08 05:12 | 39.53048 | -104.64480 | 9041 ft | 236 kts | 350° |
| 2026-05-08 05:12 | 39.54699 | -104.64599 | 9037 ft | 236 kts | 360° |
| 2026-05-08 05:13 | 39.56350 | -104.64517 | 9031 ft | 236 kts | 0° |
| 2026-05-08 05:13 | 39.58020 | -104.64455 | 9030 ft | 237 kts | 359° |
| 2026-05-08 05:13 | 39.59722 | -104.64432 | 9020 ft | 234 kts | 358° |
| 2026-05-08 05:13 | 39.61377 | -104.64424 | 9022 ft | 234 kts | 359° |
| 2026-05-08 05:14 | 39.63059 | -104.64409 | 9017 ft | 233 kts | 359° |
| 2026-05-08 05:14 | 39.64700 | -104.64384 | 8944 ft | 226 kts | 359° |
| 2026-05-08 05:14 | 39.66273 | -104.64360 | 8665 ft | 211 kts | 359° |
| 2026-05-08 05:14 | 39.67747 | -104.64345 | 8334 ft | 201 kts | 359° |
| 2026-05-08 05:15 | 39.69181 | -104.64334 | 8073 ft | 200 kts | 0° |
| 2026-05-08 05:15 | 39.70592 | -104.64318 | 7796 ft | 200 kts | 1° |
| 2026-05-08 05:15 | 39.72017 | -104.64299 | 7524 ft | 200 kts | 1° |
| 2026-05-08 05:15 | 39.73445 | -104.64281 | 7245 ft | 199 kts | 1° |
| 2026-05-08 05:16 | 39.74878 | -104.64266 | 6971 ft | 198 kts | 2° |
| 2026-05-08 05:16 | 39.76252 | -104.64253 | 6714 ft | 186 kts | 2° |
| 2026-05-08 05:16 | 39.77487 | -104.64238 | 6493 ft | 173 kts | 3° |
| 2026-05-08 05:16 | 39.78686 | -104.64220 | 6221 ft | 164 kts | 4° |
| 2026-05-08 05:17 | 39.79852 | -104.64211 | 6038 ft | 164 kts | 3° |
| 2026-05-08 05:17 | 39.81000 | -104.64198 | 5819 ft | 164 kts | 3° |
| 2026-05-08 05:17 | 39.82142 | -104.64181 | 5609 ft | 163 kts | 3° |
| 2026-05-08 05:17 | 39.83288 | -104.64171 | 5404 ft | 163 kts | 3° |
| 2026-05-08 05:18 | 39.84343 | -104.64152 | 5342 ft | 130 kts | 1° |
| 2026-05-08 05:18 | 39.85048 | -104.64146 | 5337 ft | 73 kts | 360° |
| 2026-05-08 05:18 | 39.85446 | -104.64159 | 5330 ft | 49 kts | 349° |
| 2026-05-08 05:18 | 39.85665 | -104.64271 | 5328 ft | 14 kts | 330° |
| 2026-05-08 05:19 | 39.85675 | -104.64280 | 5328 ft | 0 kts | 329° |
| 2026-05-08 05:20 | 39.85708 | -104.64305 | 5328 ft | 9 kts | 329° |
| 2026-05-08 05:20 | 39.85785 | -104.64362 | 5330 ft | 11 kts | 331° |
| 2026-05-08 05:20 | 39.85855 | -104.64411 | 5332 ft | 12 kts | 332° |
| 2026-05-08 05:21 | 39.85937 | -104.64470 | 5334 ft | 14 kts | 330° |
| 2026-05-08 05:21 | 39.86016 | -104.64529 | 5336 ft | 11 kts | 330° |
| 2026-05-08 05:21 | 39.86075 | -104.64574 | 5338 ft | 8 kts | 330° |
| 2026-05-08 05:21 | 39.86152 | -104.64630 | 5340 ft | 15 kts | 331° |
| 2026-05-08 05:22 | 39.86243 | -104.64696 | 5344 ft | 14 kts | 332° |
| 2026-05-08 05:22 | 39.86327 | -104.64758 | 5350 ft | 13 kts | 329° |
| 2026-05-08 05:22 | 39.86405 | -104.64812 | 5354 ft | 12 kts | 331° |
| 2026-05-08 05:22 | 39.86476 | -104.64869 | 5358 ft | 11 kts | 311° |
| 2026-05-08 05:23 | 39.86492 | -104.64991 | 5363 ft | 17 kts | 271° |
| 2026-05-08 05:23 | 39.86492 | -104.65119 | 5370 ft | 10 kts | 270° |
| 2026-05-08 05:23 | 39.86493 | -104.65185 | 5374 ft | 4 kts | 270° |
| 2026-05-08 05:23 | 39.86493 | -104.65237 | 5376 ft | 8 kts | 270° |
| 2026-05-08 05:24 | 39.86494 | -104.65365 | 5381 ft | 19 kts | 272° |
| 2026-05-08 05:24 | 39.86498 | -104.65566 | 5389 ft | 24 kts | 270° |
| 2026-05-08 05:24 | 39.86499 | -104.65788 | 5397 ft | 25 kts | 269° |
| 2026-05-08 05:24 | 39.86500 | -104.66004 | 5405 ft | 21 kts | 270° |
| 2026-05-08 05:25 | 39.86501 | -104.66186 | 5408 ft | 18 kts | 270° |
| 2026-05-08 05:25 | 39.86476 | -104.66333 | 5409 ft | 15 kts | 209° |
| 2026-05-08 05:25 | 39.86380 | -104.66344 | 5413 ft | 15 kts | 180° |
| 2026-05-08 05:25 | 39.86251 | -104.66344 | 5418 ft | 17 kts | 180° |
| 2026-05-08 05:26 | 39.86144 | -104.66345 | 5422 ft | 13 kts | 181° |
| 2026-05-08 05:26 | 39.86042 | -104.66355 | 5424 ft | 14 kts | 207° |
| 2026-05-08 05:26 | 39.86018 | -104.66468 | 5424 ft | 15 kts | 270° |
| 2026-05-08 05:26 | 39.86057 | -104.66638 | 5422 ft | 20 kts | 279° |
| 2026-05-08 05:27 | 39.86061 | -104.66824 | 5419 ft | 20 kts | 270° |
| 2026-05-08 05:27 | 39.86063 | -104.67024 | 5412 ft | 23 kts | 270° |
| 2026-05-08 05:27 | 39.86064 | -104.67245 | 5402 ft | 26 kts | 270° |
| 2026-05-08 05:27 | 39.86066 | -104.67444 | 5390 ft | 12 kts | 272° |
| 2026-05-08 05:28 | 39.86118 | -104.67446 | 5388 ft | 11 kts | 21° |
| 2026-05-08 05:28 | 39.86191 | -104.67420 | 5387 ft | 10 kts | 359° |
| 2026-05-08 05:28 | 39.86239 | -104.67427 | 5386 ft | 2 kts | 351° |
| 2026-05-08 05:28 | 39.86243 | -104.67428 | 5386 ft | 0 kts | 351° |